createdAt,value
2023-04-15T00:04:20.900Z,64
2023-04-15T00:33:28.764Z,61
2023-04-15T01:02:48.951Z,61
2023-04-15T01:31:59.864Z,60
2023-04-15T02:01:15.338Z,64
2023-04-15T02:30:28.026Z,64
2023-04-15T02:59:48.853Z,65
2023-04-15T03:29:06.554Z,66
2023-04-15T03:58:16.177Z,63
2023-04-15T04:27:25.277Z,66
2023-04-15T04:56:36.232Z,67
2023-04-15T05:25:46.536Z,66
2023-04-15T05:54:58.939Z,66
2023-04-15T06:24:12.434Z,66
2023-04-15T06:53:25.088Z,67
2023-04-15T07:22:46.830Z,66
2023-04-15T07:52:00.601Z,66
2023-04-15T08:21:24.174Z,62
2023-04-15T08:50:41.521Z,60
2023-04-15T09:20:00.327Z,60
2023-04-15T09:49:18.548Z,58
2023-04-15T10:18:33.538Z,57
2023-04-15T10:47:53.910Z,53
2023-04-15T11:17:13.720Z,53
2023-04-15T11:46:40.666Z,46
2023-04-15T12:15:55.106Z,44
2023-04-15T12:45:04.309Z,47
2023-04-15T13:14:23.972Z,44
2023-04-15T13:43:36.756Z,44
2023-04-15T14:12:41.202Z,47
2023-04-15T14:41:55.860Z,46
2023-04-15T15:11:07.976Z,46
2023-04-15T15:40:16.495Z,47
2023-04-15T16:09:28.925Z,48
2023-04-15T16:38:35.349Z,45
2023-04-15T17:07:56.156Z,50
2023-04-15T17:37:09.919Z,49
2023-04-15T18:06:32.726Z,52
2023-04-15T18:35:50.665Z,59
2023-04-15T19:05:06.621Z,58
2023-04-15T19:34:07.787Z,61
2023-04-15T20:03:15.261Z,59
2023-04-15T20:32:08.461Z,61
2023-04-15T21:01:16.560Z,62
2023-04-15T21:30:15.552Z,62
2023-04-15T21:59:22.458Z,64
2023-04-15T22:28:43.936Z,65
2023-04-15T22:58:06.263Z,66
2023-04-15T23:27:27.689Z,67
2023-04-15T23:56:45.184Z,68
